Centerville, TX

5:37 PM CST on February 28, 2015 (GMT -0600)
Crockett | Change Station
CLOSE
Current Station
Airport
Location: Crockett,
Elevation: 348 ft
Nearby Weather Stations

Elev 348 ft 31.31 °N, 95.40 °W | Updated 27 minutes ago

Overcast
Overcast
52 °F
Feels Like 52 °F
N
5
Wind Variable Wind from ENE

Today
High -- | Low -- °F
--% Chance of Precip.
Yesterday
High -- | Low -- °F
Precip. -- in
6:51 AM 6:21 PM
Waxing Gibbous, 81% visible
Pressure 30.28 in
Visibility 10.0 miles
Clouds Mostly Cloudy 2200 ft
Overcast 3600 ft
Dew Point 39 °F
Humidity 62%
Rainfall 0.00 in
Snow Depth Not available.
UV 0 out of 12
Pollen 5.10 out of 12
Air Quality Not available.
Flu Activity Not available.
METAR KDKR 282310Z AUTO 07004KT 10SM BKN022 OVC036 11/04 A3028 RMK AO2

More Conditions Fewer Conditions

Pressure 30.28 in
Visibility 10.0 miles
Clouds Mostly Cloudy 2200 ft
Overcast 3600 ft
Dew Point 39 °F
Humidity 62%
Rainfall 0.00 in
Snow Depth Not available.
UV 0 out of 12
Pollen 5.10 out of 12
Air Quality Not available.
Flu Activity Not available.
METAR KDKR 282310Z AUTO 07004KT 10SM BKN022 OVC036 11/04 A3028 RMK AO2

More Conditions Fewer Conditions

Nowcast | as of 2:38 PM CST on February 28, 2015

Areas of light freezing drizzle and drizzle will continue moving across a large portion of north and central Texas through the rest of afternoon. At 230 PM...freezing temperatures were still occurring northwest of a line from Paris to Rockwall...Hillsboro and Killeen. Although roads are not collecting any more ice due to short wave radiation warming roadways...a light glaze may still collect on elevated surfaces through sunset. The freezing line will continue to move slowly northwest another row of counties or two this afternoon...but then slow or halt during the evening hours. This could allow for some residual moisture to refreeze on roadways this evening. Otherwise...it will remain cloudy with northeast winds 5 to 10 mph and wind chills in the mid 20s to around 30 in the freezing air.

×

10-Day Weather Forecast

Almanac

Astronomy

Feb. 28, 2015 Rise Set
Actual Time
Civil Twilight
Nautical Twilight
Astronomical Twilight
Moon
Length of Visible Light
Length of Day
Tomorrow will be .
, % of the Moon is Illuminated

Today's Extremes

State Highs State Lows

Community

WunderPhotos

Upload Photos

1,801,176 photos uploaded!

WunderBlogs® & News

Nearby

Air Quality

  Air Quality AQ Index Pollutant
Not available.

Snow Depth

Station Depth Elevation

Earthquake Activity

City Distance Mag. Time & Date
Minimum magnitude displayed is 2.5.

Coastal Water Temperatures

Place Temperature

Nearby Weather Stations